sensor_id;sensor_type;location;lat;lon;timestamp;P1;durP1;ratioP1;P2;durP2;ratioP2
64619;SDS011;51029;51.058;13.826;2023-07-09T00:00:52;8.60;;;7.70;;
64619;SDS011;51029;51.058;13.826;2023-07-09T00:03:18;7.70;;;7.00;;
64619;SDS011;51029;51.058;13.826;2023-07-09T00:05:45;8.70;;;7.77;;
64619;SDS011;51029;51.058;13.826;2023-07-09T00:08:31;8.30;;;7.37;;
64619;SDS011;51029;51.058;13.826;2023-07-09T00:10:58;8.50;;;7.63;;
64619;SDS011;51029;51.058;13.826;2023-07-09T00:13:24;8.37;;;7.50;;
64619;SDS011;51029;51.058;13.826;2023-07-09T00:15:51;8.73;;;7.13;;
64619;SDS011;51029;51.058;13.826;2023-07-09T00:18:19;7.73;;;7.03;;
64619;SDS011;51029;51.058;13.826;2023-07-09T00:20:45;7.73;;;6.93;;
64619;SDS011;51029;51.058;13.826;2023-07-09T00:23:13;7.77;;;6.97;;
64619;SDS011;51029;51.058;13.826;2023-07-09T00:25:39;7.70;;;6.77;;
64619;SDS011;51029;51.058;13.826;2023-07-09T00:28:12;8.47;;;7.60;;
64619;SDS011;51029;51.058;13.826;2023-07-09T00:30:42;8.93;;;7.30;;
64619;SDS011;51029;51.058;13.826;2023-07-09T00:33:12;7.97;;;6.93;;
64619;SDS011;51029;51.058;13.826;2023-07-09T00:35:44;7.97;;;7.17;;
64619;SDS011;51029;51.058;13.826;2023-07-09T00:38:17;9.03;;;6.70;;
64619;SDS011;51029;51.058;13.826;2023-07-09T00:41:03;7.97;;;7.17;;
64619;SDS011;51029;51.058;13.826;2023-07-09T00:43:32;8.67;;;6.90;;
64619;SDS011;51029;51.058;13.826;2023-07-09T00:46:09;7.70;;;7.00;;
64619;SDS011;51029;51.058;13.826;2023-07-09T00:48:45;8.23;;;6.90;;
64619;SDS011;51029;51.058;13.826;2023-07-09T00:51:19;12.90;;;11.60;;
64619;SDS011;51029;51.058;13.826;2023-07-09T00:53:46;14.33;;;12.23;;
64619;SDS011;51029;51.058;13.826;2023-07-09T00:56:18;8.17;;;7.37;;
64619;SDS011;51029;51.058;13.826;2023-07-09T00:58:52;7.87;;;6.97;;
64619;SDS011;51029;51.058;13.826;2023-07-09T01:01:20;7.87;;;6.97;;
64619;SDS011;51029;51.058;13.826;2023-07-09T01:03:53;11.07;;;7.70;;
64619;SDS011;51029;51.058;13.826;2023-07-09T01:06:26;8.20;;;7.33;;
64619;SDS011;51029;51.058;13.826;2023-07-09T01:08:57;7.80;;;7.00;;
64619;SDS011;51029;51.058;13.826;2023-07-09T01:11:23;7.70;;;6.90;;
64619;SDS011;51029;51.058;13.826;2023-07-09T01:13:49;8.67;;;6.97;;
64619;SDS011;51029;51.058;13.826;2023-07-09T01:16:18;7.73;;;7.03;;
64619;SDS011;51029;51.058;13.826;2023-07-09T01:18:44;8.00;;;7.20;;
64619;SDS011;51029;51.058;13.826;2023-07-09T01:21:10;7.80;;;7.10;;
64619;SDS011;51029;51.058;13.826;2023-07-09T01:23:42;7.67;;;6.97;;
64619;SDS011;51029;51.058;13.826;2023-07-09T01:26:13;7.63;;;6.90;;
64619;SDS011;51029;51.058;13.826;2023-07-09T01:28:41;9.63;;;7.47;;
64619;SDS011;51029;51.058;13.826;2023-07-09T01:31:08;8.30;;;7.33;;
64619;SDS011;51029;51.058;13.826;2023-07-09T01:33:35;8.30;;;7.50;;
64619;SDS011;51029;51.058;13.826;2023-07-09T01:36:01;8.27;;;7.50;;
64619;SDS011;51029;51.058;13.826;2023-07-09T01:38:27;8.20;;;7.40;;
64619;SDS011;51029;51.058;13.826;2023-07-09T01:40:56;9.03;;;7.33;;
64619;SDS011;51029;51.058;13.826;2023-07-09T01:43:22;7.57;;;6.83;;
64619;SDS011;51029;51.058;13.826;2023-07-09T01:45:50;8.00;;;7.20;;
64619;SDS011;51029;51.058;13.826;2023-07-09T01:48:16;7.73;;;7.03;;
64619;SDS011;51029;51.058;13.826;2023-07-09T01:50:45;8.40;;;7.53;;
64619;SDS011;51029;51.058;13.826;2023-07-09T01:53:14;8.40;;;7.60;;
64619;SDS011;51029;51.058;13.826;2023-07-09T01:55:42;7.97;;;7.20;;
64619;SDS011;51029;51.058;13.826;2023-07-09T01:58:09;11.63;;;7.60;;
64619;SDS011;51029;51.058;13.826;2023-07-09T02:00:36;9.63;;;7.67;;
64619;SDS011;51029;51.058;13.826;2023-07-09T02:03:03;9.77;;;7.73;;
64619;SDS011;51029;51.058;13.826;2023-07-09T02:05:30;9.43;;;7.60;;
64619;SDS011;51029;51.058;13.826;2023-07-09T02:07:57;10.03;;;7.90;;
64619;SDS011;51029;51.058;13.826;2023-07-09T02:10:22;8.77;;;7.87;;
64619;SDS011;51029;51.058;13.826;2023-07-09T02:12:48;8.77;;;7.70;;
64619;SDS011;51029;51.058;13.826;2023-07-09T02:15:14;9.53;;;7.83;;
64619;SDS011;51029;51.058;13.826;2023-07-09T02:17:40;9.50;;;7.33;;
64619;SDS011;51029;51.058;13.826;2023-07-09T02:20:06;8.70;;;7.80;;
64619;SDS011;51029;51.058;13.826;2023-07-09T02:22:34;8.40;;;7.60;;
64619;SDS011;51029;51.058;13.826;2023-07-09T02:25:00;8.27;;;7.47;;
64619;SDS011;51029;51.058;13.826;2023-07-09T02:27:26;7.67;;;6.87;;
64619;SDS011;51029;51.058;13.826;2023-07-09T02:29:52;10.03;;;8.10;;
64619;SDS011;51029;51.058;13.826;2023-07-09T02:32:20;8.03;;;7.23;;
64619;SDS011;51029;51.058;13.826;2023-07-09T02:34:47;10.17;;;7.87;;
64619;SDS011;51029;51.058;13.826;2023-07-09T02:37:14;9.90;;;7.77;;
64619;SDS011;51029;51.058;13.826;2023-07-09T02:39:42;9.37;;;8.30;;
64619;SDS011;51029;51.058;13.826;2023-07-09T02:42:09;10.57;;;8.30;;
64619;SDS011;51029;51.058;13.826;2023-07-09T02:44:36;9.90;;;8.00;;
64619;SDS011;51029;51.058;13.826;2023-07-09T02:47:02;9.07;;;8.20;;
64619;SDS011;51029;51.058;13.826;2023-07-09T02:49:27;10.37;;;7.87;;
64619;SDS011;51029;51.058;13.826;2023-07-09T02:51:53;9.20;;;8.03;;
64619;SDS011;51029;51.058;13.826;2023-07-09T02:54:18;10.03;;;8.27;;
64619;SDS011;51029;51.058;13.826;2023-07-09T02:56:44;8.03;;;7.27;;
64619;SDS011;51029;51.058;13.826;2023-07-09T02:59:09;8.80;;;7.80;;
64619;SDS011;51029;51.058;13.826;2023-07-09T03:01:36;8.77;;;7.80;;
64619;SDS011;51029;51.058;13.826;2023-07-09T03:04:02;9.00;;;8.07;;
64619;SDS011;51029;51.058;13.826;2023-07-09T03:06:28;8.73;;;7.83;;
64619;SDS011;51029;51.058;13.826;2023-07-09T03:08:57;8.37;;;7.47;;
64619;SDS011;51029;51.058;13.826;2023-07-09T03:11:24;8.20;;;7.50;;
64619;SDS011;51029;51.058;13.826;2023-07-09T03:13:49;8.40;;;7.60;;
64619;SDS011;51029;51.058;13.826;2023-07-09T03:16:15;9.90;;;7.90;;
64619;SDS011;51029;51.058;13.826;2023-07-09T03:18:41;9.93;;;7.90;;
64619;SDS011;51029;51.058;13.826;2023-07-09T03:21:07;8.83;;;7.93;;
64619;SDS011;51029;51.058;13.826;2023-07-09T03:23:32;8.70;;;7.90;;
64619;SDS011;51029;51.058;13.826;2023-07-09T03:25:58;8.40;;;7.60;;
64619;SDS011;51029;51.058;13.826;2023-07-09T03:28:25;10.10;;;8.00;;
64619;SDS011;51029;51.058;13.826;2023-07-09T03:30:52;8.73;;;7.67;;
64619;SDS011;51029;51.058;13.826;2023-07-09T03:33:19;10.17;;;7.90;;
64619;SDS011;51029;51.058;13.826;2023-07-09T03:35:45;8.13;;;7.43;;
64619;SDS011;51029;51.058;13.826;2023-07-09T03:38:12;8.40;;;7.03;;
64619;SDS011;51029;51.058;13.826;2023-07-09T03:40:37;8.17;;;7.37;;
64619;SDS011;51029;51.058;13.826;2023-07-09T03:43:04;9.77;;;7.23;;
64619;SDS011;51029;51.058;13.826;2023-07-09T03:45:30;8.57;;;7.67;;
64619;SDS011;51029;51.058;13.826;2023-07-09T03:47:57;9.93;;;7.30;;
64619;SDS011;51029;51.058;13.826;2023-07-09T03:50:22;10.07;;;7.27;;
64619;SDS011;51029;51.058;13.826;2023-07-09T03:52:48;7.93;;;7.23;;
64619;SDS011;51029;51.058;13.826;2023-07-09T03:55:13;9.30;;;7.03;;
64619;SDS011;51029;51.058;13.826;2023-07-09T03:57:39;10.60;;;7.30;;
64619;SDS011;51029;51.058;13.826;2023-07-09T04:00:05;7.50;;;6.80;;
64619;SDS011;51029;51.058;13.826;2023-07-09T04:02:35;8.10;;;7.17;;
64619;SDS011;51029;51.058;13.826;2023-07-09T04:05:01;8.33;;;7.50;;
64619;SDS011;51029;51.058;13.826;2023-07-09T04:07:27;7.90;;;7.17;;
64619;SDS011;51029;51.058;13.826;2023-07-09T04:09:53;7.63;;;6.80;;
64619;SDS011;51029;51.058;13.826;2023-07-09T04:12:19;7.23;;;6.57;;
64619;SDS011;51029;51.058;13.826;2023-07-09T04:14:44;10.03;;;6.80;;
64619;SDS011;51029;51.058;13.826;2023-07-09T04:17:10;7.17;;;6.57;;
64619;SDS011;51029;51.058;13.826;2023-07-09T04:19:35;8.13;;;7.33;;
64619;SDS011;51029;51.058;13.826;2023-07-09T04:22:01;7.33;;;6.63;;
64619;SDS011;51029;51.058;13.826;2023-07-09T04:24:26;7.40;;;6.70;;
64619;SDS011;51029;51.058;13.826;2023-07-09T04:26:52;8.50;;;6.67;;
64619;SDS011;51029;51.058;13.826;2023-07-09T04:29:21;7.50;;;6.70;;
64619;SDS011;51029;51.058;13.826;2023-07-09T04:31:50;9.43;;;7.13;;
64619;SDS011;51029;51.058;13.826;2023-07-09T04:34:15;7.37;;;6.77;;
64619;SDS011;51029;51.058;13.826;2023-07-09T04:36:41;9.60;;;7.10;;
64619;SDS011;51029;51.058;13.826;2023-07-09T04:39:06;8.40;;;6.70;;
64619;SDS011;51029;51.058;13.826;2023-07-09T04:41:32;7.77;;;7.07;;
64619;SDS011;51029;51.058;13.826;2023-07-09T04:43:58;8.67;;;6.40;;
64619;SDS011;51029;51.058;13.826;2023-07-09T04:46:24;8.20;;;6.80;;
64619;SDS011;51029;51.058;13.826;2023-07-09T04:48:49;10.70;;;7.17;;
64619;SDS011;51029;51.058;13.826;2023-07-09T04:51:15;7.63;;;6.77;;
64619;SDS011;51029;51.058;13.826;2023-07-09T04:53:40;9.00;;;7.40;;
64619;SDS011;51029;51.058;13.826;2023-07-09T04:56:07;11.03;;;6.50;;
64619;SDS011;51029;51.058;13.826;2023-07-09T04:58:34;6.97;;;6.30;;
64619;SDS011;51029;51.058;13.826;2023-07-09T05:01:00;7.87;;;7.17;;
64619;SDS011;51029;51.058;13.826;2023-07-09T05:03:25;7.13;;;6.43;;
64619;SDS011;51029;51.058;13.826;2023-07-09T05:05:51;9.30;;;7.03;;
64619;SDS011;51029;51.058;13.826;2023-07-09T05:08:17;7.87;;;7.07;;
64619;SDS011;51029;51.058;13.826;2023-07-09T05:10:43;7.93;;;7.23;;
64619;SDS011;51029;51.058;13.826;2023-07-09T05:13:10;9.63;;;7.03;;
64619;SDS011;51029;51.058;13.826;2023-07-09T05:15:39;7.80;;;7.00;;
64619;SDS011;51029;51.058;13.826;2023-07-09T05:18:06;7.93;;;6.87;;
64619;SDS011;51029;51.058;13.826;2023-07-09T05:20:33;7.57;;;6.87;;
64619;SDS011;51029;51.058;13.826;2023-07-09T05:22:58;7.40;;;6.70;;
64619;SDS011;51029;51.058;13.826;2023-07-09T05:25:24;7.77;;;7.07;;
64619;SDS011;51029;51.058;13.826;2023-07-09T05:27:50;9.17;;;6.67;;
64619;SDS011;51029;51.058;13.826;2023-07-09T05:30:16;7.27;;;6.43;;
64619;SDS011;51029;51.058;13.826;2023-07-09T05:32:42;7.67;;;6.87;;
64619;SDS011;51029;51.058;13.826;2023-07-09T05:35:08;8.57;;;6.80;;
64619;SDS011;51029;51.058;13.826;2023-07-09T05:37:34;7.77;;;6.40;;
64619;SDS011;51029;51.058;13.826;2023-07-09T05:40:00;7.80;;;6.90;;
64619;SDS011;51029;51.058;13.826;2023-07-09T05:42:26;7.70;;;7.00;;
64619;SDS011;51029;51.058;13.826;2023-07-09T05:44:51;7.67;;;6.97;;
64619;SDS011;51029;51.058;13.826;2023-07-09T05:47:17;9.30;;;6.67;;
64619;SDS011;51029;51.058;13.826;2023-07-09T05:49:43;7.30;;;6.60;;
64619;SDS011;51029;51.058;13.826;2023-07-09T05:52:08;8.20;;;7.23;;
64619;SDS011;51029;51.058;13.826;2023-07-09T05:54:34;7.20;;;6.53;;
64619;SDS011;51029;51.058;13.826;2023-07-09T05:56:59;7.57;;;6.77;;
64619;SDS011;51029;51.058;13.826;2023-07-09T05:59:25;8.33;;;6.13;;
64619;SDS011;51029;51.058;13.826;2023-07-09T06:01:50;8.10;;;6.60;;
64619;SDS011;51029;51.058;13.826;2023-07-09T06:04:16;9.80;;;6.60;;
64619;SDS011;51029;51.058;13.826;2023-07-09T06:06:41;7.00;;;6.40;;
64619;SDS011;51029;51.058;13.826;2023-07-09T06:09:10;8.43;;;6.63;;
64619;SDS011;51029;51.058;13.826;2023-07-09T06:11:35;8.63;;;6.37;;
64619;SDS011;51029;51.058;13.826;2023-07-09T06:14:01;9.57;;;6.93;;
64619;SDS011;51029;51.058;13.826;2023-07-09T06:16:27;7.53;;;6.57;;
64619;SDS011;51029;51.058;13.826;2023-07-09T06:18:53;7.57;;;6.73;;
64619;SDS011;51029;51.058;13.826;2023-07-09T06:21:18;8.07;;;6.57;;
64619;SDS011;51029;51.058;13.826;2023-07-09T06:23:45;8.77;;;6.70;;
64619;SDS011;51029;51.058;13.826;2023-07-09T06:26:11;14.23;;;6.77;;
64619;SDS011;51029;51.058;13.826;2023-07-09T06:28:37;7.23;;;6.20;;
64619;SDS011;51029;51.058;13.826;2023-07-09T06:31:02;8.00;;;6.50;;
64619;SDS011;51029;51.058;13.826;2023-07-09T06:33:28;7.80;;;6.10;;
64619;SDS011;51029;51.058;13.826;2023-07-09T06:35:54;7.53;;;6.80;;
64619;SDS011;51029;51.058;13.826;2023-07-09T06:38:21;9.33;;;6.20;;
64619;SDS011;51029;51.058;13.826;2023-07-09T06:40:48;7.47;;;6.77;;
64619;SDS011;51029;51.058;13.826;2023-07-09T06:43:13;7.40;;;6.60;;
64619;SDS011;51029;51.058;13.826;2023-07-09T06:45:47;6.50;;;5.80;;
64619;SDS011;51029;51.058;13.826;2023-07-09T06:48:17;7.13;;;6.30;;
64619;SDS011;51029;51.058;13.826;2023-07-09T06:50:42;9.33;;;6.60;;
64619;SDS011;51029;51.058;13.826;2023-07-09T06:53:08;7.13;;;6.43;;
64619;SDS011;51029;51.058;13.826;2023-07-09T06:55:34;7.53;;;6.57;;
64619;SDS011;51029;51.058;13.826;2023-07-09T06:58:00;7.00;;;6.30;;
64619;SDS011;51029;51.058;13.826;2023-07-09T07:00:26;6.53;;;5.93;;
64619;SDS011;51029;51.058;13.826;2023-07-09T07:02:51;8.97;;;6.30;;
64619;SDS011;51029;51.058;13.826;2023-07-09T07:05:17;7.60;;;6.90;;
64619;SDS011;51029;51.058;13.826;2023-07-09T07:07:44;7.70;;;6.50;;
64619;SDS011;51029;51.058;13.826;2023-07-09T07:10:09;7.00;;;6.30;;
64619;SDS011;51029;51.058;13.826;2023-07-09T07:12:43;7.23;;;6.00;;
64619;SDS011;51029;51.058;13.826;2023-07-09T07:15:10;7.23;;;6.03;;
64619;SDS011;51029;51.058;13.826;2023-07-09T07:17:38;7.27;;;6.03;;
64619;SDS011;51029;51.058;13.826;2023-07-09T07:20:04;7.07;;;6.10;;
64619;SDS011;51029;51.058;13.826;2023-07-09T07:22:30;6.97;;;5.93;;
64619;SDS011;51029;51.058;13.826;2023-07-09T07:24:56;6.13;;;5.60;;
64619;SDS011;51029;51.058;13.826;2023-07-09T07:27:21;7.90;;;5.73;;
64619;SDS011;51029;51.058;13.826;2023-07-09T07:29:47;7.23;;;5.70;;
64619;SDS011;51029;51.058;13.826;2023-07-09T07:32:12;6.93;;;5.97;;
64619;SDS011;51029;51.058;13.826;2023-07-09T07:34:38;6.57;;;5.70;;
64619;SDS011;51029;51.058;13.826;2023-07-09T07:37:03;7.87;;;5.90;;
64619;SDS011;51029;51.058;13.826;2023-07-09T07:39:29;6.37;;;5.80;;
64619;SDS011;51029;51.058;13.826;2023-07-09T07:41:54;6.80;;;6.10;;
64619;SDS011;51029;51.058;13.826;2023-07-09T07:44:20;6.30;;;5.63;;
64619;SDS011;51029;51.058;13.826;2023-07-09T07:46:46;6.40;;;5.80;;
64619;SDS011;51029;51.058;13.826;2023-07-09T07:49:12;9.07;;;6.13;;
64619;SDS011;51029;51.058;13.826;2023-07-09T07:51:38;6.20;;;5.63;;
64619;SDS011;51029;51.058;13.826;2023-07-09T07:54:04;5.80;;;5.30;;
64619;SDS011;51029;51.058;13.826;2023-07-09T07:56:30;5.80;;;5.20;;
64619;SDS011;51029;51.058;13.826;2023-07-09T07:58:55;6.67;;;5.57;;
64619;SDS011;51029;51.058;13.826;2023-07-09T08:01:21;6.30;;;5.50;;
64619;SDS011;51029;51.058;13.826;2023-07-09T08:03:46;6.70;;;5.47;;
64619;SDS011;51029;51.058;13.826;2023-07-09T08:06:12;7.60;;;5.40;;
64619;SDS011;51029;51.058;13.826;2023-07-09T08:08:37;6.43;;;5.30;;
64619;SDS011;51029;51.058;13.826;2023-07-09T08:11:04;6.00;;;5.40;;
64619;SDS011;51029;51.058;13.826;2023-07-09T08:13:36;7.73;;;5.50;;
64619;SDS011;51029;51.058;13.826;2023-07-09T08:16:03;6.30;;;5.33;;
64619;SDS011;51029;51.058;13.826;2023-07-09T08:18:30;6.57;;;5.30;;
64619;SDS011;51029;51.058;13.826;2023-07-09T08:20:55;6.30;;;5.67;;
64619;SDS011;51029;51.058;13.826;2023-07-09T08:23:21;6.30;;;5.57;;
64619;SDS011;51029;51.058;13.826;2023-07-09T08:25:56;6.40;;;5.80;;
64619;SDS011;51029;51.058;13.826;2023-07-09T08:28:23;6.17;;;5.57;;
64619;SDS011;51029;51.058;13.826;2023-07-09T08:30:53;6.00;;;5.47;;
64619;SDS011;51029;51.058;13.826;2023-07-09T08:33:19;6.43;;;5.70;;
64619;SDS011;51029;51.058;13.826;2023-07-09T08:35:45;6.80;;;6.20;;
64619;SDS011;51029;51.058;13.826;2023-07-09T08:38:13;5.87;;;5.27;;
64619;SDS011;51029;51.058;13.826;2023-07-09T08:40:39;6.38;;;5.47;;
64619;SDS011;51029;51.058;13.826;2023-07-09T08:43:26;6.30;;;5.70;;
64619;SDS011;51029;51.058;13.826;2023-07-09T08:46:17;8.63;;;5.53;;
64619;SDS011;51029;51.058;13.826;2023-07-09T08:48:54;7.57;;;5.75;;
64619;SDS011;51029;51.058;13.826;2023-07-09T08:51:28;6.22;;;5.55;;
64619;SDS011;51029;51.058;13.826;2023-07-09T08:54:04;6.45;;;5.10;;
64619;SDS011;51029;51.058;13.826;2023-07-09T08:56:37;6.35;;;4.20;;
64619;SDS011;51029;51.058;13.826;2023-07-09T08:59:03;4.70;;;4.22;;
64619;SDS011;51029;51.058;13.826;2023-07-09T09:04:03;4.22;;;3.83;;
64619;SDS011;51029;51.058;13.826;2023-07-09T09:06:45;3.95;;;3.58;;
64619;SDS011;51029;51.058;13.826;2023-07-09T09:09:28;6.63;;;4.03;;
64619;SDS011;51029;51.058;13.826;2023-07-09T09:12:10;5.10;;;3.80;;
64619;SDS011;51029;51.058;13.826;2023-07-09T09:14:41;4.82;;;4.03;;
64619;SDS011;51029;51.058;13.826;2023-07-09T09:17:18;4.40;;;3.78;;
64619;SDS011;51029;51.058;13.826;2023-07-09T09:19:47;4.28;;;3.70;;
64619;SDS011;51029;51.058;13.826;2023-07-09T09:22:17;4.93;;;3.70;;
64619;SDS011;51029;51.058;13.826;2023-07-09T09:25:11;4.55;;;3.42;;
64619;SDS011;51029;51.058;13.826;2023-07-09T09:27:43;5.32;;;4.80;;
64619;SDS011;51029;51.058;13.826;2023-07-09T09:30:13;6.05;;;4.00;;
64619;SDS011;51029;51.058;13.826;2023-07-09T09:32:42;6.45;;;3.53;;
64619;SDS011;51029;51.058;13.826;2023-07-09T09:35:17;6.40;;;4.07;;
64619;SDS011;51029;51.058;13.826;2023-07-09T09:37:49;6.85;;;3.95;;
64619;SDS011;51029;51.058;13.826;2023-07-09T09:40:17;4.07;;;3.67;;
64619;SDS011;51029;51.058;13.826;2023-07-09T09:42:47;4.30;;;3.72;;
64619;SDS011;51029;51.058;13.826;2023-07-09T09:45:13;5.30;;;3.15;;
64619;SDS011;51029;51.058;13.826;2023-07-09T09:47:45;4.10;;;3.42;;
64619;SDS011;51029;51.058;13.826;2023-07-09T09:50:15;6.32;;;3.70;;
64619;SDS011;51029;51.058;13.826;2023-07-09T09:52:42;3.85;;;3.45;;
64619;SDS011;51029;51.058;13.826;2023-07-09T09:55:13;6.30;;;3.50;;
64619;SDS011;51029;51.058;13.826;2023-07-09T09:57:49;6.25;;;4.03;;
64619;SDS011;51029;51.058;13.826;2023-07-09T10:00:16;4.43;;;3.50;;
64619;SDS011;51029;51.058;13.826;2023-07-09T10:02:43;4.10;;;3.42;;
64619;SDS011;51029;51.058;13.826;2023-07-09T10:05:21;4.05;;;3.25;;
64619;SDS011;51029;51.058;13.826;2023-07-09T10:10:23;4.00;;;3.35;;
64619;SDS011;51029;51.058;13.826;2023-07-09T10:12:52;3.90;;;3.50;;
64619;SDS011;51029;51.058;13.826;2023-07-09T10:15:51;3.80;;;3.50;;
64619;SDS011;51029;51.058;13.826;2023-07-09T10:21:22;3.80;;;3.50;;
64619;SDS011;51029;51.058;13.826;2023-07-09T10:37:56;4.40;;;3.40;;
64619;SDS011;51029;51.058;13.826;2023-07-09T10:40:38;3.60;;;3.20;;
64619;SDS011;51029;51.058;13.826;2023-07-09T10:43:06;4.25;;;3.40;;
64619;SDS011;51029;51.058;13.826;2023-07-09T10:45:41;3.33;;;3.00;;
64619;SDS011;51029;51.058;13.826;2023-07-09T10:50:44;3.80;;;3.40;;
64619;SDS011;51029;51.058;13.826;2023-07-09T10:53:15;4.32;;;3.08;;
64619;SDS011;51029;51.058;13.826;2023-07-09T10:55:59;4.53;;;3.30;;
64619;SDS011;51029;51.058;13.826;2023-07-09T11:01:40;5.25;;;3.05;;
64619;SDS011;51029;51.058;13.826;2023-07-09T11:04:20;4.00;;;3.22;;
64619;SDS011;51029;51.058;13.826;2023-07-09T11:06:52;5.20;;;3.22;;
64619;SDS011;51029;51.058;13.826;2023-07-09T11:11:48;4.45;;;3.10;;
64619;SDS011;51029;51.058;13.826;2023-07-09T11:14:31;5.22;;;3.47;;
64619;SDS011;51029;51.058;13.826;2023-07-09T11:17:03;4.10;;;3.40;;
64619;SDS011;51029;51.058;13.826;2023-07-09T11:19:30;3.88;;;3.00;;
64619;SDS011;51029;51.058;13.826;2023-07-09T11:22:02;3.72;;;2.72;;
64619;SDS011;51029;51.058;13.826;2023-07-09T11:24:32;3.63;;;3.28;;
64619;SDS011;51029;51.058;13.826;2023-07-09T11:27:00;3.55;;;3.03;;
64619;SDS011;51029;51.058;13.826;2023-07-09T11:29:27;3.75;;;3.05;;
64619;SDS011;51029;51.058;13.826;2023-07-09T11:31:54;6.32;;;3.20;;
64619;SDS011;51029;51.058;13.826;2023-07-09T11:34:20;4.97;;;3.00;;
64619;SDS011;51029;51.058;13.826;2023-07-09T11:41:55;4.57;;;3.20;;
64619;SDS011;51029;51.058;13.826;2023-07-09T11:44:22;3.70;;;2.97;;
64619;SDS011;51029;51.058;13.826;2023-07-09T11:52:40;3.70;;;2.90;;
64619;SDS011;51029;51.058;13.826;2023-07-09T11:57:53;4.15;;;2.70;;
64619;SDS011;51029;51.058;13.826;2023-07-09T12:00:20;3.55;;;2.80;;
64619;SDS011;51029;51.058;13.826;2023-07-09T12:02:46;4.55;;;2.70;;
64619;SDS011;51029;51.058;13.826;2023-07-09T12:05:12;3.30;;;2.88;;
64619;SDS011;51029;51.058;13.826;2023-07-09T12:07:43;3.92;;;2.70;;
64619;SDS011;51029;51.058;13.826;2023-07-09T12:10:22;3.00;;;2.70;;
64619;SDS011;51029;51.058;13.826;2023-07-09T12:12:53;4.40;;;2.60;;
64619;SDS011;51029;51.058;13.826;2023-07-09T12:15:22;3.20;;;2.30;;
64619;SDS011;51029;51.058;13.826;2023-07-09T12:17:57;7.07;;;3.60;;
64619;SDS011;51029;51.058;13.826;2023-07-09T12:20:25;3.67;;;2.80;;
64619;SDS011;51029;51.058;13.826;2023-07-09T12:22:53;4.03;;;2.95;;
64619;SDS011;51029;51.058;13.826;2023-07-09T12:25:21;3.92;;;2.67;;
64619;SDS011;51029;51.058;13.826;2023-07-09T12:27:49;4.05;;;2.47;;
64619;SDS011;51029;51.058;13.826;2023-07-09T12:30:15;3.42;;;2.53;;
64619;SDS011;51029;51.058;13.826;2023-07-09T12:32:45;4.43;;;2.53;;
64619;SDS011;51029;51.058;13.826;2023-07-09T12:35:19;3.40;;;2.40;;
64619;SDS011;51029;51.058;13.826;2023-07-09T12:37:46;4.82;;;2.70;;
64619;SDS011;51029;51.058;13.826;2023-07-09T12:40:22;2.95;;;2.35;;
64619;SDS011;51029;51.058;13.826;2023-07-09T12:42:53;3.15;;;2.63;;
64619;SDS011;51029;51.058;13.826;2023-07-09T12:45:22;3.30;;;2.33;;
64619;SDS011;51029;51.058;13.826;2023-07-09T12:47:48;2.63;;;2.40;;
64619;SDS011;51029;51.058;13.826;2023-07-09T12:52:51;4.18;;;2.70;;
64619;SDS011;51029;51.058;13.826;2023-07-09T12:55:20;3.28;;;2.38;;
64619;SDS011;51029;51.058;13.826;2023-07-09T12:57:48;4.25;;;2.42;;
64619;SDS011;51029;51.058;13.826;2023-07-09T13:00:14;3.75;;;2.53;;
64619;SDS011;51029;51.058;13.826;2023-07-09T13:02:42;2.88;;;2.38;;
64619;SDS011;51029;51.058;13.826;2023-07-09T13:05:18;3.75;;;2.67;;
64619;SDS011;51029;51.058;13.826;2023-07-09T13:07:46;3.17;;;2.42;;
64619;SDS011;51029;51.058;13.826;2023-07-09T13:10:23;4.82;;;2.60;;
64619;SDS011;51029;51.058;13.826;2023-07-09T13:12:52;3.45;;;2.60;;
64619;SDS011;51029;51.058;13.826;2023-07-09T13:17:57;3.03;;;2.38;;
64619;SDS011;51029;51.058;13.826;2023-07-09T13:20:27;3.95;;;2.42;;
64619;SDS011;51029;51.058;13.826;2023-07-09T13:22:53;3.85;;;2.15;;
64619;SDS011;51029;51.058;13.826;2023-07-09T13:25:19;2.78;;;2.42;;
64619;SDS011;51029;51.058;13.826;2023-07-09T13:27:45;3.47;;;2.30;;
64619;SDS011;51029;51.058;13.826;2023-07-09T13:30:11;4.13;;;2.35;;
64619;SDS011;51029;51.058;13.826;2023-07-09T13:32:37;3.83;;;2.35;;
64619;SDS011;51029;51.058;13.826;2023-07-09T13:35:03;4.50;;;2.22;;
64619;SDS011;51029;51.058;13.826;2023-07-09T13:37:37;3.20;;;2.70;;
64619;SDS011;51029;51.058;13.826;2023-07-09T13:40:03;4.13;;;2.47;;
64619;SDS011;51029;51.058;13.826;2023-07-09T13:42:29;3.00;;;2.70;;
64619;SDS011;51029;51.058;13.826;2023-07-09T13:44:54;4.18;;;2.47;;
64619;SDS011;51029;51.058;13.826;2023-07-09T13:47:21;2.95;;;2.20;;
64619;SDS011;51029;51.058;13.826;2023-07-09T13:49:46;2.40;;;2.20;;
64619;SDS011;51029;51.058;13.826;2023-07-09T13:52:14;5.13;;;2.50;;
64619;SDS011;51029;51.058;13.826;2023-07-09T13:54:42;3.90;;;2.38;;
64619;SDS011;51029;51.058;13.826;2023-07-09T13:57:13;5.50;;;2.67;;
64619;SDS011;51029;51.058;13.826;2023-07-09T13:59:40;4.50;;;2.80;;
64619;SDS011;51029;51.058;13.826;2023-07-09T14:02:23;3.50;;;2.63;;
64619;SDS011;51029;51.058;13.826;2023-07-09T14:04:56;3.20;;;2.80;;
64619;SDS011;51029;51.058;13.826;2023-07-09T14:07:35;3.25;;;2.72;;
64619;SDS011;51029;51.058;13.826;2023-07-09T14:10:03;3.50;;;2.67;;
64619;SDS011;51029;51.058;13.826;2023-07-09T14:12:31;2.70;;;2.50;;
64619;SDS011;51029;51.058;13.826;2023-07-09T14:14:58;5.60;;;2.72;;
64619;SDS011;51029;51.058;13.826;2023-07-09T14:17:25;3.20;;;2.60;;
64619;SDS011;51029;51.058;13.826;2023-07-09T14:19:51;3.42;;;2.70;;
64619;SDS011;51029;51.058;13.826;2023-07-09T14:24:57;3.40;;;3.10;;
64619;SDS011;51029;51.058;13.826;2023-07-09T14:27:23;4.13;;;2.80;;
64619;SDS011;51029;51.058;13.826;2023-07-09T14:29:49;3.03;;;2.70;;
64619;SDS011;51029;51.058;13.826;2023-07-09T14:35:04;4.45;;;3.13;;
64619;SDS011;51029;51.058;13.826;2023-07-09T14:37:39;3.80;;;3.30;;
64619;SDS011;51029;51.058;13.826;2023-07-09T14:40:05;3.95;;;3.05;;
64619;SDS011;51029;51.058;13.826;2023-07-09T14:42:32;4.18;;;3.30;;
64619;SDS011;51029;51.058;13.826;2023-07-09T14:44:57;4.68;;;3.17;;
64619;SDS011;51029;51.058;13.826;2023-07-09T14:47:23;6.10;;;3.85;;
64619;SDS011;51029;51.058;13.826;2023-07-09T14:49:49;7.25;;;4.43;;
64619;SDS011;51029;51.058;13.826;2023-07-09T14:52:19;5.50;;;3.78;;
64619;SDS011;51029;51.058;13.826;2023-07-09T14:54:48;4.45;;;3.40;;
64619;SDS011;51029;51.058;13.826;2023-07-09T14:57:17;5.03;;;3.40;;
64619;SDS011;51029;51.058;13.826;2023-07-09T14:59:45;3.80;;;3.35;;
64619;SDS011;51029;51.058;13.826;2023-07-09T15:02:28;6.85;;;3.83;;
64619;SDS011;51029;51.058;13.826;2023-07-09T15:05:01;5.47;;;3.45;;
64619;SDS011;51029;51.058;13.826;2023-07-09T15:07:27;6.32;;;4.78;;
64619;SDS011;51029;51.058;13.826;2023-07-09T15:09:55;4.63;;;3.10;;
64619;SDS011;51029;51.058;13.826;2023-07-09T15:12:25;8.88;;;8.05;;
64619;SDS011;51029;51.058;13.826;2023-07-09T15:15:12;7.40;;;6.70;;
64619;SDS011;51029;51.058;13.826;2023-07-09T15:17:44;4.45;;;3.38;;
64619;SDS011;51029;51.058;13.826;2023-07-09T15:20:14;4.18;;;3.53;;
64619;SDS011;51029;51.058;13.826;2023-07-09T15:22:47;8.23;;;3.33;;
64619;SDS011;51029;51.058;13.826;2023-07-09T15:25:19;5.55;;;3.35;;
64619;SDS011;51029;51.058;13.826;2023-07-09T15:27:46;5.35;;;4.00;;
64619;SDS011;51029;51.058;13.826;2023-07-09T15:30:12;5.28;;;3.85;;
64619;SDS011;51029;51.058;13.826;2023-07-09T15:32:39;6.72;;;4.03;;
64619;SDS011;51029;51.058;13.826;2023-07-09T15:35:05;5.30;;;3.90;;